createdAt,value
2022-10-02T00:30:57.155Z,1006.03
2022-10-02T00:31:40.278Z,1006.02
2022-10-02T00:32:20.702Z,1006.08
2022-10-02T00:33:01.185Z,1006.11
2022-10-02T00:33:41.650Z,1006.14
2022-10-02T00:34:22.144Z,1006.15
2022-10-02T00:35:02.655Z,1006.1
2022-10-02T00:35:43.157Z,1006.13
2022-10-02T00:36:24.569Z,1006.13
2022-10-02T00:37:05.009Z,1006.17
2022-10-02T00:37:45.496Z,1006.14
2022-10-02T00:38:25.995Z,1006.11
2022-10-02T00:39:06.477Z,1006.18
2022-10-02T00:39:46.971Z,1006.16
2022-10-02T00:40:27.470Z,1006.17
2022-10-02T00:41:07.960Z,1006.21
2022-10-02T00:41:48.513Z,1006.19
2022-10-02T00:42:29.023Z,1006.17
2022-10-02T00:43:09.494Z,1006.19
2022-10-02T00:43:50.017Z,1006.19
2022-10-02T00:44:30.465Z,1006.2
2022-10-02T00:45:10.958Z,1006.25
2022-10-02T00:45:51.451Z,1006.23
2022-10-02T00:47:12.359Z,1006.27
2022-10-02T00:47:52.884Z,1006.25
2022-10-02T00:48:33.360Z,1006.27
2022-10-02T00:49:13.845Z,1006.3
2022-10-02T00:49:54.353Z,1006.34
2022-10-02T00:50:34.798Z,1006.33
2022-10-02T00:51:15.282Z,1006.33
2022-10-02T00:51:55.782Z,1006.36
2022-10-02T00:52:36.288Z,1006.35
2022-10-02T00:53:16.762Z,1006.32
2022-10-02T00:53:57.208Z,1006.35
2022-10-02T00:54:37.695Z,1006.35
2022-10-02T00:55:18.178Z,1006.31
2022-10-02T00:55:58.630Z,1006.35
2022-10-02T00:56:39.298Z,1006.35
2022-10-02T00:57:19.585Z,1006.33
2022-10-02T00:58:00.074Z,1006.36
2022-10-02T00:58:40.570Z,1006.38
2022-10-02T00:59:21.040Z,1006.33
2022-10-02T01:00:01.523Z,1006.37
2022-10-02T01:00:42.006Z,1006.35
2022-10-02T01:01:22.552Z,1006.34
2022-10-02T01:02:02.995Z,1006.4
2022-10-02T01:02:43.486Z,1006.35
2022-10-02T01:03:24.012Z,1006.31
2022-10-02T01:04:04.458Z,1006.33
2022-10-02T01:04:44.917Z,1006.32
2022-10-02T01:05:25.415Z,1006.32
2022-10-02T01:06:05.905Z,1006.29
2022-10-02T01:06:46.377Z,1006.31
2022-10-02T01:07:26.845Z,1006.29
2022-10-02T01:08:07.337Z,1006.29
2022-10-02T01:08:47.821Z,1006.26
2022-10-02T01:09:28.304Z,1006.29
2022-10-02T01:10:08.831Z,1006.26
2022-10-02T01:10:49.251Z,1006.29
2022-10-02T01:11:29.748Z,1006.29
2022-10-02T01:12:10.243Z,1006.32
2022-10-02T01:12:50.696Z,1006.31
2022-10-02T01:13:31.150Z,1006.3
2022-10-02T01:14:11.644Z,1006.34
2022-10-02T01:14:52.152Z,1006.35
2022-10-02T01:15:32.645Z,1006.31
2022-10-02T01:16:13.141Z,1006.23
2022-10-02T01:16:53.667Z,1006.25
2022-10-02T01:17:34.147Z,1006.26
2022-10-02T01:18:14.652Z,1006.27
2022-10-02T01:18:55.959Z,1006.33
2022-10-02T01:19:36.419Z,1006.3
2022-10-02T01:20:16.890Z,1006.32
2022-10-02T01:20:57.331Z,1006.35
2022-10-02T01:21:37.795Z,1006.34
2022-10-02T01:22:18.277Z,1006.3
2022-10-02T01:22:58.782Z,1006.32
2022-10-02T01:23:39.307Z,1006.36
2022-10-02T01:24:19.778Z,1006.31
2022-10-02T01:25:00.256Z,1006.38
2022-10-02T01:25:40.740Z,1006.42
2022-10-02T01:26:21.245Z,1006.4
2022-10-02T01:27:01.783Z,1006.39
2022-10-02T01:27:42.275Z,1006.44
2022-10-02T01:28:22.850Z,1006.43
2022-10-02T01:29:03.248Z,1006.45
2022-10-02T01:29:43.736Z,1006.43
2022-10-02T01:30:24.203Z,1006.43
2022-10-02T01:31:04.717Z,1006.47
2022-10-02T01:31:45.227Z,1006.45
2022-10-02T01:32:25.657Z,1006.43
2022-10-02T01:33:06.184Z,1006.42
2022-10-02T01:33:46.647Z,1006.43
2022-10-02T01:34:27.130Z,1006.39
2022-10-02T01:35:07.606Z,1006.39
2022-10-02T01:35:48.099Z,1006.37
2022-10-02T01:36:28.604Z,1006.41
2022-10-02T01:37:09.062Z,1006.33
2022-10-02T01:37:49.548Z,1006.41
2022-10-02T01:38:29.997Z,1006.36
2022-10-02T01:39:10.477Z,1006.33
2022-10-02T01:39:50.980Z,1006.35
2022-10-02T01:40:31.434Z,1006.31
2022-10-02T01:41:11.912Z,1006.32
2022-10-02T01:41:52.408Z,1006.32
2022-10-02T01:42:32.880Z,1006.26
2022-10-02T01:43:13.348Z,1006.38
2022-10-02T01:43:53.836Z,1006.3
2022-10-02T01:44:34.349Z,1006.38
2022-10-02T01:45:14.777Z,1006.39
2022-10-02T01:45:55.340Z,1006.41
2022-10-02T01:46:36.074Z,1006.39
2022-10-02T01:47:16.261Z,1006.41
2022-10-02T01:47:56.765Z,1006.44
2022-10-02T01:48:37.325Z,1006.39
2022-10-02T01:49:17.788Z,1006.38
2022-10-02T01:49:58.312Z,1006.41
2022-10-02T01:50:38.758Z,1006.38
2022-10-02T01:51:19.225Z,1006.41
2022-10-02T01:52:40.210Z,1006.43
2022-10-02T01:53:20.694Z,1006.43
2022-10-02T01:54:01.216Z,1006.44
2022-10-02T01:55:22.213Z,1006.47
2022-10-02T01:56:02.713Z,1006.48
2022-10-02T01:56:43.155Z,1006.43
2022-10-02T01:57:23.639Z,1006.48
2022-10-02T01:58:04.118Z,1006.41
2022-10-02T01:58:44.589Z,1006.41
2022-10-02T01:59:25.080Z,1006.35
2022-10-02T02:00:05.570Z,1006.32
2022-10-02T02:00:46.050Z,1006.45
2022-10-02T02:01:26.564Z,1006.43
2022-10-02T02:02:07.071Z,1006.43
2022-10-02T02:02:48.483Z,1006.4
2022-10-02T02:03:28.919Z,1006.42
2022-10-02T02:04:09.450Z,1006.4
2022-10-02T02:04:49.887Z,1006.48
2022-10-02T02:05:30.389Z,1006.46
2022-10-02T02:06:10.838Z,1006.48
2022-10-02T02:06:51.332Z,1006.45
2022-10-02T02:07:31.826Z,1006.41
2022-10-02T02:08:12.264Z,1006.41
2022-10-02T02:08:52.677Z,1006.33
2022-10-02T02:09:33.198Z,1006.36
2022-10-02T02:10:13.633Z,1006.39
2022-10-02T02:10:54.141Z,1006.39
2022-10-02T02:11:34.593Z,1006.37
2022-10-02T02:12:15.135Z,1006.39
2022-10-02T02:12:55.647Z,1006.38
2022-10-02T02:13:36.184Z,1006.37
2022-10-02T02:14:16.704Z,1006.39
2022-10-02T02:14:57.242Z,1006.42
2022-10-02T02:15:37.674Z,1006.4
2022-10-02T02:16:18.203Z,1006.41
2022-10-02T02:16:58.687Z,1006.44
2022-10-02T02:17:39.100Z,1006.39
2022-10-02T02:18:19.614Z,1006.44
2022-10-02T02:19:00.078Z,1006.36
2022-10-02T02:19:40.581Z,1006.37
2022-10-02T02:20:21.057Z,1006.33
2022-10-02T02:21:01.511Z,1006.32
2022-10-02T02:21:41.986Z,1006.21
2022-10-02T02:22:22.458Z,1006.24
2022-10-02T02:23:02.935Z,1006.27
2022-10-02T02:23:43.408Z,1006.24
2022-10-02T02:24:23.877Z,1006.27
2022-10-02T02:25:04.401Z,1006.32
2022-10-02T02:25:44.828Z,1006.34
2022-10-02T02:26:25.310Z,1006.31
2022-10-02T02:27:05.805Z,1006.32
2022-10-02T02:27:46.334Z,1006.31
2022-10-02T02:28:26.802Z,1006.3
2022-10-02T02:29:07.239Z,1006.29
2022-10-02T02:29:47.807Z,1006.27
2022-10-02T02:30:28.245Z,1006.29
2022-10-02T02:31:08.742Z,1006.36
2022-10-02T02:31:49.264Z,1006.31
2022-10-02T02:32:29.718Z,1006.34
2022-10-02T02:33:10.253Z,1006.3
2022-10-02T02:33:50.720Z,1006.31
2022-10-02T02:34:31.206Z,1006.34
2022-10-02T02:35:11.677Z,1006.33
2022-10-02T02:35:52.103Z,1006.33
2022-10-02T02:36:33.346Z,1006.33
2022-10-02T02:37:13.683Z,1006.33
2022-10-02T02:37:54.198Z,1006.34
2022-10-02T02:38:34.651Z,1006.31
2022-10-02T02:39:15.127Z,1006.31
2022-10-02T02:39:55.596Z,1006.32
2022-10-02T02:40:36.076Z,1006.29
2022-10-02T02:41:16.561Z,1006.28
2022-10-02T02:41:56.996Z,1006.31
2022-10-02T02:42:37.471Z,1006.31
2022-10-02T02:43:58.490Z,1006.34
2022-10-02T02:44:38.924Z,1006.34
2022-10-02T02:45:19.421Z,1006.37
2022-10-02T02:45:59.999Z,1006.36
2022-10-02T02:46:40.400Z,1006.39
2022-10-02T02:47:20.843Z,1006.42
2022-10-02T02:48:01.302Z,1006.35
2022-10-02T02:48:41.841Z,1006.41
2022-10-02T02:49:22.287Z,1006.42
2022-10-02T02:50:02.747Z,1006.39
2022-10-02T02:50:43.241Z,1006.37
2022-10-02T02:51:23.712Z,1006.39
2022-10-02T02:52:04.180Z,1006.38
2022-10-02T02:52:44.672Z,1006.42
2022-10-02T02:54:05.581Z,1006.42
2022-10-02T02:54:46.066Z,1006.37
2022-10-02T02:55:26.536Z,1006.39
2022-10-02T02:56:07.115Z,1006.41
2022-10-02T02:56:47.528Z,1006.36
2022-10-02T02:57:28.012Z,1006.37
2022-10-02T02:58:08.502Z,1006.4
2022-10-02T03:01:37.472Z,1006.39
2022-10-02T03:02:18.076Z,1006.43
2022-10-02T03:02:58.473Z,1006.41
2022-10-02T03:03:38.965Z,1006.31
2022-10-02T03:04:19.427Z,1006.38
2022-10-02T03:04:59.913Z,1006.34
2022-10-02T03:05:40.404Z,1006.35
2022-10-02T03:06:20.901Z,1006.39
2022-10-02T03:07:01.306Z,1006.34
2022-10-02T03:07:41.745Z,1006.34
2022-10-02T03:08:22.226Z,1006.38
2022-10-02T03:09:02.750Z,1006.38
2022-10-02T03:09:43.193Z,1006.42
2022-10-02T03:10:23.681Z,1006.46
2022-10-02T03:11:04.185Z,1006.44
2022-10-02T03:11:44.645Z,1006.44
2022-10-02T03:12:25.128Z,1006.45
2022-10-02T03:13:05.597Z,1006.43
2022-10-02T03:13:46.157Z,1006.46
2022-10-02T03:14:26.537Z,1006.46
2022-10-02T03:15:07.044Z,1006.48
2022-10-02T03:15:47.552Z,1006.46
2022-10-02T03:17:08.510Z,1006.47
2022-10-02T03:17:48.959Z,1006.48
2022-10-02T03:18:29.425Z,1006.43
2022-10-02T03:19:09.906Z,1006.41
2022-10-02T03:19:50.400Z,1006.42
2022-10-02T03:20:30.874Z,1006.39
2022-10-02T03:21:11.389Z,1006.42
2022-10-02T03:21:51.808Z,1006.39
2022-10-02T03:22:32.256Z,1006.38
2022-10-02T03:23:12.741Z,1006.37
2022-10-02T03:23:53.231Z,1006.33
2022-10-02T03:24:33.665Z,1006.31
2022-10-02T03:25:14.207Z,1006.31
2022-10-02T03:25:54.688Z,1006.33
2022-10-02T03:26:35.467Z,1006.35
2022-10-02T03:27:15.636Z,1006.32
2022-10-02T03:27:56.117Z,1006.33
2022-10-02T03:28:55.852Z,1006.39
2022-10-02T03:29:17.076Z,1006.38
2022-10-02T03:29:57.555Z,1006.41
2022-10-02T03:30:38.003Z,1006.42
2022-10-02T03:31:18.575Z,1006.34
2022-10-02T03:32:39.489Z,1006.39
2022-10-02T03:33:19.973Z,1006.43
2022-10-02T03:34:00.438Z,1006.42
2022-10-02T03:34:40.954Z,1006.42
2022-10-02T03:35:21.472Z,1006.44
2022-10-02T03:36:01.951Z,1006.47
2022-10-02T03:36:42.460Z,1006.53
2022-10-02T03:37:23.007Z,1006.54
2022-10-02T03:38:03.432Z,1006.58
2022-10-02T03:38:44.101Z,1006.55
2022-10-02T03:39:25.845Z,1006.51
2022-10-02T03:40:04.846Z,1006.48
2022-10-02T03:40:45.326Z,1006.48
2022-10-02T03:41:25.806Z,1006.47
2022-10-02T03:42:06.286Z,1006.43
2022-10-02T03:42:46.791Z,1006.46
2022-10-02T03:43:27.254Z,1006.42
2022-10-02T03:44:07.769Z,1006.46
2022-10-02T03:44:48.274Z,1006.47
2022-10-02T03:45:49.776Z,1006.43
2022-10-02T03:46:09.263Z,1006.42
2022-10-02T03:46:49.748Z,1006.38
2022-10-02T03:47:30.166Z,1006.38
2022-10-02T03:48:10.638Z,1006.42
2022-10-02T03:48:51.085Z,1006.41
2022-10-02T03:49:31.582Z,1006.43
2022-10-02T03:50:12.063Z,1006.43
2022-10-02T03:50:53.373Z,1006.39
2022-10-02T03:51:32.987Z,1006.42
2022-10-02T03:52:13.523Z,1006.38
2022-10-02T03:52:54.021Z,1006.45
2022-10-02T03:53:35.336Z,1006.4
2022-10-02T03:54:15.810Z,1006.39
2022-10-02T03:54:56.291Z,1006.42
2022-10-02T03:55:36.754Z,1006.42
2022-10-02T03:56:17.235Z,1006.44
2022-10-02T03:56:57.734Z,1006.41
2022-10-02T03:57:38.181Z,1006.36
2022-10-02T03:58:18.719Z,1006.39
2022-10-02T03:58:59.142Z,1006.36
2022-10-02T03:59:39.659Z,1006.4
2022-10-02T04:00:20.076Z,1006.36
2022-10-02T04:01:00.559Z,1006.33
2022-10-02T04:01:43.476Z,1006.39
2022-10-02T04:02:21.525Z,1006.38
2022-10-02T04:03:02.014Z,1006.3
2022-10-02T04:03:42.683Z,1006.35
2022-10-02T04:04:22.947Z,1006.42
2022-10-02T04:05:03.443Z,1006.4
2022-10-02T04:05:43.899Z,1006.33
2022-10-02T04:06:24.434Z,1006.4
2022-10-02T04:07:04.997Z,1006.38
2022-10-02T04:07:49.098Z,1006.38
2022-10-02T04:08:25.934Z,1006.43
2022-10-02T04:09:06.360Z,1006.4
2022-10-02T04:09:46.834Z,1006.37
2022-10-02T04:11:07.888Z,1006.41
2022-10-02T04:11:48.316Z,1006.43
2022-10-02T04:12:28.810Z,1006.37
2022-10-02T04:13:09.295Z,1006.3
2022-10-02T04:13:49.763Z,1006.34
2022-10-02T04:14:30.243Z,1006.33
2022-10-02T04:15:10.703Z,1006.37
2022-10-02T04:15:51.196Z,1006.26
2022-10-02T04:16:31.719Z,1006.37
2022-10-02T04:17:12.174Z,1006.44
2022-10-02T04:17:55.792Z,1006.41
2022-10-02T04:18:33.058Z,1006.43
2022-10-02T04:19:13.567Z,1006.43
2022-10-02T04:19:54.049Z,1006.4
2022-10-02T04:20:34.590Z,1006.33
2022-10-02T04:21:15.016Z,1006.41
2022-10-02T04:21:55.478Z,1006.43
2022-10-02T04:22:35.987Z,1006.4
2022-10-02T04:23:16.390Z,1006.43
2022-10-02T04:23:56.936Z,1006.44
2022-10-02T04:24:37.397Z,1006.48
2022-10-02T04:25:17.875Z,1006.47
2022-10-02T04:26:39.123Z,1006.42
2022-10-02T04:27:19.271Z,1006.39
2022-10-02T04:27:59.838Z,1006.36
2022-10-02T04:28:40.294Z,1006.42
2022-10-02T04:29:20.791Z,1006.4
2022-10-02T04:30:01.289Z,1006.42
2022-10-02T04:30:41.778Z,1006.41
2022-10-02T04:31:22.285Z,1006.36
2022-10-02T04:32:02.732Z,1006.42
2022-10-02T04:32:43.233Z,1006.42
2022-10-02T04:33:23.693Z,1006.4
2022-10-02T04:34:04.233Z,1006.4
2022-10-02T04:34:44.626Z,1006.42
2022-10-02T04:35:25.098Z,1006.43
2022-10-02T04:36:05.606Z,1006.48
2022-10-02T04:36:46.087Z,1006.48
2022-10-02T04:37:26.585Z,1006.42
2022-10-02T04:38:07.045Z,1006.46
2022-10-02T04:38:47.570Z,1006.48
2022-10-02T04:39:28.062Z,1006.52
2022-10-02T04:40:08.540Z,1006.5
2022-10-02T04:40:49.053Z,1006.51
2022-10-02T04:42:09.971Z,1006.56
2022-10-02T04:42:50.494Z,1006.54
2022-10-02T04:43:30.921Z,1006.46
2022-10-02T04:44:11.402Z,1006.53
2022-10-02T04:44:51.857Z,1006.56
2022-10-02T04:45:32.369Z,1006.42
2022-10-02T04:46:12.842Z,1006.52
2022-10-02T04:46:53.267Z,1006.5
2022-10-02T04:47:33.729Z,1006.48
2022-10-02T04:48:14.197Z,1006.5
2022-10-02T04:48:54.634Z,1006.56
2022-10-02T04:49:35.147Z,1006.44
2022-10-02T04:50:15.646Z,1006.57
2022-10-02T04:50:56.093Z,1006.58
2022-10-02T04:51:36.552Z,1006.61
2022-10-02T04:52:16.993Z,1006.62
2022-10-02T04:52:57.494Z,1006.62
2022-10-02T04:53:37.967Z,1006.57
2022-10-02T04:54:18.440Z,1006.57
2022-10-02T04:55:39.353Z,1006.57
2022-10-02T04:56:19.792Z,1006.6
2022-10-02T04:57:00.246Z,1006.6
2022-10-02T04:58:21.231Z,1006.55
2022-10-02T04:59:01.691Z,1006.57
2022-10-02T04:59:42.308Z,1006.54
2022-10-02T05:00:22.719Z,1006.57
2022-10-02T05:01:03.252Z,1006.49
2022-10-02T05:01:43.733Z,1006.56
2022-10-02T05:02:24.166Z,1006.49
2022-10-02T05:03:04.569Z,1006.52
2022-10-02T05:03:45.050Z,1006.5
2022-10-02T05:04:25.510Z,1006.48
2022-10-02T05:05:05.998Z,1006.46
2022-10-02T05:05:46.494Z,1006.49
2022-10-02T05:06:26.941Z,1006.5
2022-10-02T05:07:07.454Z,1006.51
2022-10-02T05:07:47.894Z,1006.47
2022-10-02T05:08:28.357Z,1006.38
2022-10-02T05:09:08.845Z,1006.49
2022-10-02T05:09:49.344Z,1006.49
2022-10-02T05:10:29.835Z,1006.53
2022-10-02T05:11:10.325Z,1006.53
2022-10-02T05:11:50.786Z,1006.51
2022-10-02T05:12:31.288Z,1006.55
2022-10-02T05:13:11.759Z,1006.53
2022-10-02T05:16:26.151Z,1006.54
2022-10-02T05:17:06.548Z,1006.56
2022-10-02T05:17:47.163Z,1006.54
2022-10-02T05:18:27.665Z,1006.62
2022-10-02T05:19:08.144Z,1006.56
2022-10-02T05:19:48.691Z,1006.58
2022-10-02T05:20:29.111Z,1006.62
2022-10-02T05:21:09.611Z,1006.57
2022-10-02T05:21:50.133Z,1006.63
2022-10-02T05:22:30.590Z,1006.58
2022-10-02T05:23:11.079Z,1006.51
2022-10-02T05:23:51.538Z,1006.61
2022-10-02T05:24:32.030Z,1006.56
2022-10-02T05:25:12.516Z,1006.62
2022-10-02T05:25:53.006Z,1006.61
2022-10-02T05:26:33.523Z,1006.62
2022-10-02T05:27:13.934Z,1006.65
2022-10-02T05:27:54.530Z,1006.64
2022-10-02T05:28:34.910Z,1006.7
2022-10-02T05:29:15.405Z,1006.71
2022-10-02T05:29:55.896Z,1006.74
2022-10-02T05:32:09.082Z,1006.75
2022-10-02T05:32:49.338Z,1006.74
2022-10-02T05:33:29.841Z,1006.74
2022-10-02T05:34:10.302Z,1006.75
2022-10-02T05:34:50.766Z,1006.75
2022-10-02T05:35:31.250Z,1006.77
2022-10-02T05:36:11.713Z,1006.71
2022-10-02T05:36:52.207Z,1006.76
2022-10-02T05:37:32.613Z,1006.76
2022-10-02T05:38:13.083Z,1006.82
2022-10-02T05:38:53.530Z,1006.82
2022-10-02T05:39:34.013Z,1006.82
2022-10-02T05:40:14.504Z,1006.84
2022-10-02T05:40:54.954Z,1006.83
2022-10-02T05:41:35.534Z,1006.81
2022-10-02T05:42:15.951Z,1006.84
2022-10-02T05:42:56.410Z,1006.9
2022-10-02T05:44:17.364Z,1006.82
2022-10-02T05:44:57.833Z,1006.77
2022-10-02T05:45:38.298Z,1006.77
2022-10-02T05:46:18.825Z,1006.84
2022-10-02T05:46:59.317Z,1006.81
2022-10-02T05:47:39.742Z,1006.78
2022-10-02T05:48:20.258Z,1006.82
2022-10-02T05:49:00.711Z,1006.82
2022-10-02T05:49:41.189Z,1006.78
2022-10-02T05:50:21.792Z,1006.82
2022-10-02T05:51:02.245Z,1006.77
2022-10-02T05:51:42.762Z,1006.71
2022-10-02T05:52:23.219Z,1006.71
2022-10-02T06:32:06.209Z,1007.1
2022-10-02T06:32:46.734Z,1007.1
2022-10-02T06:33:27.141Z,1007.11
2022-10-02T06:34:07.626Z,1007.12
2022-10-02T06:34:48.383Z,1007.14
2022-10-02T06:35:28.590Z,1007.15
2022-10-02T06:36:09.065Z,1007.15
2022-10-02T06:36:49.593Z,1007.19
2022-10-02T06:37:30.149Z,1007.21
2022-10-02T06:38:10.587Z,1007.25
2022-10-02T06:38:51.071Z,1007.16
2022-10-02T06:39:31.574Z,1007.16
2022-10-02T06:40:12.055Z,1007.22
2022-10-02T06:40:52.541Z,1007.2
2022-10-02T06:41:33.046Z,1007.17
2022-10-02T06:42:13.508Z,1007.22
2022-10-02T06:42:53.972Z,1007.22
2022-10-02T06:43:34.465Z,1007.17
2022-10-02T06:44:14.961Z,1007.22
2022-10-02T06:46:32.963Z,1007.27
2022-10-02T06:47:13.449Z,1007.3
2022-10-02T06:47:53.900Z,1007.27
2022-10-02T06:48:34.417Z,1007.29
2022-10-02T06:49:14.852Z,1007.3
2022-10-02T06:49:55.341Z,1007.28
2022-10-02T06:50:35.838Z,1007.31
2022-10-02T06:51:16.344Z,1007.33
2022-10-02T06:51:56.823Z,1007.35
2022-10-02T06:52:38.372Z,1007.32
2022-10-02T06:53:17.743Z,1007.36
2022-10-02T06:53:58.217Z,1007.41
2022-10-02T06:54:38.760Z,1007.41
2022-10-02T06:55:19.203Z,1007.43
2022-10-02T06:55:59.660Z,1007.44
2022-10-02T06:56:40.250Z,1007.44
2022-10-02T06:57:20.648Z,1007.43
2022-10-02T06:58:01.091Z,1007.43
2022-10-02T06:58:41.556Z,1007.39
2022-10-02T06:59:22.078Z,1007.42
2022-10-02T07:00:02.641Z,1007.42
2022-10-02T07:00:43.129Z,1007.37
2022-10-02T07:01:23.626Z,1007.46
2022-10-02T07:02:04.081Z,1007.46
2022-10-02T07:02:44.544Z,1007.39
2022-10-02T07:03:25.009Z,1007.44
2022-10-02T07:04:05.491Z,1007.4
2022-10-02T07:04:45.993Z,1007.41
2022-10-02T07:05:26.501Z,1007.4
2022-10-02T07:06:06.986Z,1007.41
2022-10-02T07:06:47.484Z,1007.43
2022-10-02T07:07:27.955Z,1007.4
2022-10-02T07:08:08.453Z,1007.49
2022-10-02T07:08:48.932Z,1007.44
2022-10-02T07:09:29.385Z,1007.45
2022-10-02T07:10:09.866Z,1007.52
2022-10-02T07:10:50.405Z,1007.48
2022-10-02T07:11:30.853Z,1007.52
2022-10-02T07:12:11.311Z,1007.52
2022-10-02T07:12:51.772Z,1007.5
2022-10-02T07:13:32.241Z,1007.52
2022-10-02T07:14:12.756Z,1007.47
2022-10-02T07:14:53.250Z,1007.54
2022-10-02T07:15:33.686Z,1007.51
2022-10-02T07:16:54.629Z,1007.53
2022-10-02T07:17:35.138Z,1007.55
2022-10-02T07:18:15.653Z,1007.57
2022-10-02T07:19:36.632Z,1007.61
2022-10-02T07:20:17.113Z,1007.58
2022-10-02T07:20:57.584Z,1007.58
2022-10-02T07:21:38.091Z,1007.6
2022-10-02T07:22:39.888Z,1007.58
2022-10-02T07:22:59.034Z,1007.63
2022-10-02T07:23:39.502Z,1007.64
2022-10-02T07:24:20.001Z,1007.59
2022-10-02T07:25:00.516Z,1007.67
2022-10-02T07:25:41.004Z,1007.68
2022-10-02T07:29:12.440Z,1007.71
2022-10-02T07:29:52.822Z,1007.75
2022-10-02T07:30:33.271Z,1007.65
2022-10-02T07:31:13.868Z,1007.64
2022-10-02T07:31:54.284Z,1007.64
2022-10-02T07:32:34.806Z,1007.6
2022-10-02T07:33:15.286Z,1007.57
2022-10-02T07:33:55.769Z,1007.54
2022-10-02T07:34:36.253Z,1007.56
2022-10-02T07:35:16.749Z,1007.53
2022-10-02T07:35:57.249Z,1007.5
2022-10-02T07:36:38.046Z,1007.53
2022-10-02T07:37:18.248Z,1007.51
2022-10-02T07:37:58.739Z,1007.52
2022-10-02T07:38:39.241Z,1007.55
2022-10-02T07:39:19.742Z,1007.61
2022-10-02T07:40:00.240Z,1007.61
2022-10-02T07:40:40.744Z,1007.65
2022-10-02T07:41:21.274Z,1007.71
2022-10-02T07:42:01.780Z,1007.68
2022-10-02T07:42:42.221Z,1007.75
2022-10-02T07:43:22.691Z,1007.77
2022-10-02T07:44:03.413Z,1007.81
2022-10-02T07:44:43.793Z,1007.82
2022-10-02T07:45:24.649Z,1007.86
2022-10-02T07:46:08.203Z,1007.87
2022-10-02T07:46:46.791Z,1007.86
2022-10-02T07:47:27.647Z,1007.91
2022-10-02T07:48:08.167Z,1007.88
2022-10-02T07:48:49.238Z,1007.9
2022-10-02T07:49:29.311Z,1007.92
2022-10-02T07:50:09.742Z,1007.93
2022-10-02T07:50:50.192Z,1007.94
2022-10-02T07:51:30.757Z,1007.93
2022-10-02T07:52:11.234Z,1007.98
2022-10-02T07:52:51.759Z,1007.93
2022-10-02T07:53:32.257Z,1007.96
2022-10-02T07:54:12.721Z,1007.95
2022-10-02T07:54:53.544Z,1007.97
2022-10-02T07:55:33.735Z,1007.95
2022-10-02T07:56:14.207Z,1007.98
2022-10-02T07:56:54.721Z,1007.95
2022-10-02T07:57:35.181Z,1007.96
2022-10-02T07:58:15.657Z,1007.91
2022-10-02T07:58:56.161Z,1007.96
2022-10-02T07:59:36.667Z,1007.99
2022-10-02T08:00:17.139Z,1007.93
2022-10-02T08:00:57.622Z,1007.97
2022-10-02T08:01:38.179Z,1007.96
2022-10-02T08:02:18.721Z,1007.97
2022-10-02T08:02:59.228Z,1007.95
2022-10-02T08:03:39.810Z,1007.96
2022-10-02T08:04:20.275Z,1007.98
2022-10-02T08:05:00.780Z,1007.96
2022-10-02T08:05:41.207Z,1008.03
2022-10-02T08:06:21.760Z,1008.04
2022-10-02T08:07:02.255Z,1008.06
2022-10-02T08:07:42.761Z,1008.01
2022-10-02T08:08:23.247Z,1008
2022-10-02T08:09:03.770Z,1007.99
2022-10-02T08:09:44.271Z,1007.97
2022-10-02T08:10:24.759Z,1008
2022-10-02T08:11:05.243Z,1007.94
2022-10-02T08:11:49.285Z,1008
2022-10-02T08:12:26.242Z,1008.01
2022-10-02T08:13:06.768Z,1008.02
2022-10-02T08:13:47.451Z,1007.99
2022-10-02T08:14:27.986Z,1008.01
2022-10-02T08:15:08.624Z,1008.04
2022-10-02T08:15:48.987Z,1008.01
2022-10-02T08:16:29.489Z,1008
2022-10-02T08:17:09.944Z,1007.98
2022-10-02T08:17:50.451Z,1007.96
2022-10-02T08:18:34.445Z,1008.02
2022-10-02T08:19:11.407Z,1008.03
2022-10-02T08:19:51.929Z,1008.08
2022-10-02T08:20:32.424Z,1008.01
2022-10-02T08:21:12.983Z,1008.04
2022-10-02T08:21:53.473Z,1008.03
2022-10-02T08:22:33.963Z,1008.08
2022-10-02T08:23:14.467Z,1008.01
2022-10-02T08:23:55.451Z,1008.03
2022-10-02T08:24:35.395Z,1008.06
2022-10-02T08:25:15.914Z,1008.06
2022-10-02T08:25:56.398Z,1008.08
2022-10-02T08:26:37.190Z,1008.05
2022-10-02T08:27:17.336Z,1008.09
2022-10-02T08:27:57.877Z,1008.09
2022-10-02T08:28:38.322Z,1008.06
2022-10-02T08:29:18.822Z,1008.03
2022-10-02T08:29:59.328Z,1008.07
2022-10-02T08:30:39.781Z,1008.08
2022-10-02T08:31:20.296Z,1008.05
2022-10-02T08:32:00.832Z,1008.12
2022-10-02T08:33:21.695Z,1008.16
2022-10-02T08:34:02.209Z,1008.14
2022-10-02T08:34:42.707Z,1008.16
2022-10-02T08:35:23.219Z,1008.11
2022-10-02T08:36:03.769Z,1008.14
2022-10-02T08:36:44.197Z,1008.11
2022-10-02T08:37:24.686Z,1008.11
2022-10-02T08:38:05.208Z,1008.07
2022-10-02T08:38:45.742Z,1008.07
2022-10-02T08:39:26.215Z,1008.02
2022-10-02T08:40:06.746Z,1008.04
2022-10-02T08:40:47.209Z,1008
2022-10-02T08:41:27.715Z,1008.08
2022-10-02T08:42:08.225Z,1008.07
2022-10-02T08:42:48.751Z,1008.12
2022-10-02T08:43:29.712Z,1008.14
2022-10-02T08:44:10.249Z,1008.13
2022-10-02T08:44:50.736Z,1008.11
2022-10-02T08:45:31.254Z,1008.16
2022-10-02T08:46:11.770Z,1008.14
2022-10-02T08:46:52.235Z,1008.11
2022-10-02T08:47:32.763Z,1008.11
2022-10-02T08:48:13.270Z,1008.16
2022-10-02T08:48:53.718Z,1008.14
2022-10-02T08:49:34.252Z,1008.19
2022-10-02T08:50:14.763Z,1008.15
2022-10-02T08:50:55.289Z,1008.19
2022-10-02T08:51:35.773Z,1008.21
2022-10-02T08:52:16.216Z,1008.26
2022-10-02T08:52:56.670Z,1008.28
2022-10-02T08:53:37.142Z,1008.29
2022-10-02T08:54:17.601Z,1008.28
2022-10-02T08:54:58.068Z,1008.3
2022-10-02T08:55:38.566Z,1008.32
2022-10-02T08:56:20.237Z,1008.33
2022-10-02T08:56:59.614Z,1008.37
2022-10-02T08:57:40.059Z,1008.38
2022-10-02T08:58:20.537Z,1008.41
2022-10-02T08:59:01.081Z,1008.4
2022-10-02T08:59:41.555Z,1008.42
2022-10-02T09:00:22.030Z,1008.37
2022-10-02T09:01:02.637Z,1008.39
2022-10-02T09:01:43.082Z,1008.44
2022-10-02T09:02:23.671Z,1008.44
2022-10-02T09:03:04.084Z,1008.44
2022-10-02T09:03:44.541Z,1008.42
2022-10-02T09:04:25.059Z,1008.5
2022-10-02T09:05:05.572Z,1008.45
2022-10-02T09:05:46.066Z,1008.45
2022-10-02T09:06:26.548Z,1008.51
2022-10-02T09:07:07.043Z,1008.48
2022-10-02T09:07:47.559Z,1008.52
2022-10-02T09:08:28.033Z,1008.55
2022-10-02T09:09:08.523Z,1008.54
2022-10-02T09:09:49.079Z,1008.51
2022-10-02T09:10:29.505Z,1008.52
2022-10-02T09:11:10.002Z,1008.54
2022-10-02T09:11:50.484Z,1008.53
2022-10-02T09:12:30.949Z,1008.52
2022-10-02T09:13:11.436Z,1008.56
2022-10-02T09:13:51.906Z,1008.54
2022-10-02T09:14:32.392Z,1008.55
2022-10-02T09:15:12.856Z,1008.55
2022-10-02T09:15:53.343Z,1008.53
2022-10-02T09:16:34.188Z,1008.58
2022-10-02T09:17:14.369Z,1008.57
2022-10-02T09:17:54.896Z,1008.61
2022-10-02T09:18:35.331Z,1008.58
2022-10-02T09:19:15.836Z,1008.59
2022-10-02T09:19:56.344Z,1008.6
2022-10-02T09:20:36.812Z,1008.57
2022-10-02T09:21:17.231Z,1008.57
2022-10-02T09:21:57.694Z,1008.51
2022-10-02T09:22:38.203Z,1008.51
2022-10-02T09:23:18.678Z,1008.49
2022-10-02T09:24:39.890Z,1008.53
2022-10-02T09:25:20.327Z,1008.52
2022-10-02T09:26:00.816Z,1008.47
2022-10-02T09:26:41.340Z,1008.51
2022-10-02T09:27:21.830Z,1008.45
2022-10-02T09:28:02.365Z,1008.49
2022-10-02T09:28:42.845Z,1008.53
2022-10-02T09:29:23.318Z,1008.48
2022-10-02T09:30:03.811Z,1008.44
2022-10-02T09:30:44.301Z,1008.46
2022-10-02T09:31:24.873Z,1008.47
2022-10-02T09:32:05.334Z,1008.49
2022-10-02T09:32:45.875Z,1008.5
2022-10-02T09:33:26.343Z,1008.52
2022-10-02T09:34:06.854Z,1008.53
2022-10-02T09:34:47.545Z,1008.54
2022-10-02T09:35:27.886Z,1008.52
2022-10-02T09:36:08.406Z,1008.55
2022-10-02T09:36:48.876Z,1008.58
2022-10-02T09:37:29.356Z,1008.6
2022-10-02T09:38:09.976Z,1008.59
2022-10-02T09:38:51.066Z,1008.52
2022-10-02T09:39:31.581Z,1008.51
2022-10-02T09:40:12.091Z,1008.55
2022-10-02T09:40:52.562Z,1008.53
2022-10-02T09:41:33.050Z,1008.56
2022-10-02T09:42:13.546Z,1008.54
2022-10-02T09:42:54.081Z,1008.5
2022-10-02T09:43:34.563Z,1008.58